sensor_id;sensor_type;location;lat;lon;timestamp;temperature;humidity
37281;DHT22;23169;41.804;12.596;2023-07-31T00:00:24;25.60;1.00
37281;DHT22;23169;41.804;12.596;2023-07-31T00:02:56;25.60;1.00
37281;DHT22;23169;41.804;12.596;2023-07-31T00:05:26;25.60;1.00
37281;DHT22;23169;41.804;12.596;2023-07-31T00:10:25;25.60;1.00
37281;DHT22;23169;41.804;12.596;2023-07-31T00:12:54;25.50;1.00
37281;DHT22;23169;41.804;12.596;2023-07-31T00:15:22;25.50;1.00
37281;DHT22;23169;41.804;12.596;2023-07-31T00:17:52;25.50;1.00
37281;DHT22;23169;41.804;12.596;2023-07-31T00:20:21;25.20;4.60
37281;DHT22;23169;41.804;12.596;2023-07-31T00:22:49;25.50;1.00
37281;DHT22;23169;41.804;12.596;2023-07-31T00:25:20;25.60;1.00
37281;DHT22;23169;41.804;12.596;2023-07-31T00:27:49;25.60;1.00
37281;DHT22;23169;41.804;12.596;2023-07-31T00:30:18;25.60;1.00
37281;DHT22;23169;41.804;12.596;2023-07-31T00:32:47;25.60;1.00
37281;DHT22;23169;41.804;12.596;2023-07-31T00:35:15;25.50;1.00
37281;DHT22;23169;41.804;12.596;2023-07-31T00:37:44;25.50;1.00
37281;DHT22;23169;41.804;12.596;2023-07-31T00:40:13;25.50;1.00
37281;DHT22;23169;41.804;12.596;2023-07-31T00:42:43;25.50;1.00
37281;DHT22;23169;41.804;12.596;2023-07-31T00:45:13;25.40;1.00
37281;DHT22;23169;41.804;12.596;2023-07-31T00:47:43;25.40;1.00
37281;DHT22;23169;41.804;12.596;2023-07-31T00:50:13;25.40;1.00
37281;DHT22;23169;41.804;12.596;2023-07-31T00:52:45;25.40;1.00
37281;DHT22;23169;41.804;12.596;2023-07-31T00:55:14;25.40;1.00
37281;DHT22;23169;41.804;12.596;2023-07-31T01:00:15;25.40;1.00
37281;DHT22;23169;41.804;12.596;2023-07-31T01:02:44;25.40;1.00
37281;DHT22;23169;41.804;12.596;2023-07-31T01:05:13;25.40;1.00
37281;DHT22;23169;41.804;12.596;2023-07-31T01:08:04;26.70;1.00
37281;DHT22;23169;41.804;12.596;2023-07-31T01:10:44;25.40;1.00
37281;DHT22;23169;41.804;12.596;2023-07-31T01:13:15;25.40;1.00
37281;DHT22;23169;41.804;12.596;2023-07-31T01:15:45;25.40;1.00
37281;DHT22;23169;41.804;12.596;2023-07-31T01:18:14;25.30;1.00
37281;DHT22;23169;41.804;12.596;2023-07-31T01:20:48;25.40;1.00
37281;DHT22;23169;41.804;12.596;2023-07-31T01:26:11;25.40;1.00
37281;DHT22;23169;41.804;12.596;2023-07-31T01:29:10;25.40;1.00
37281;DHT22;23169;41.804;12.596;2023-07-31T01:31:47;25.30;1.00
37281;DHT22;23169;41.804;12.596;2023-07-31T01:34:18;25.30;1.00
37281;DHT22;23169;41.804;12.596;2023-07-31T01:36:47;25.30;1.00
37281;DHT22;23169;41.804;12.596;2023-07-31T01:39:16;25.30;1.00
37281;DHT22;23169;41.804;12.596;2023-07-31T01:41:46;25.30;1.00
37281;DHT22;23169;41.804;12.596;2023-07-31T01:49:14;25.20;1.00
37281;DHT22;23169;41.804;12.596;2023-07-31T01:51:46;25.20;1.00
37281;DHT22;23169;41.804;12.596;2023-07-31T01:54:15;25.50;1.00
37281;DHT22;23169;41.804;12.596;2023-07-31T01:56:46;25.20;1.00
37281;DHT22;23169;41.804;12.596;2023-07-31T01:59:16;25.30;1.00
37281;DHT22;23169;41.804;12.596;2023-07-31T02:01:45;25.30;1.00
37281;DHT22;23169;41.804;12.596;2023-07-31T02:04:14;25.20;1.00
37281;DHT22;23169;41.804;12.596;2023-07-31T02:09:12;25.20;1.00
37281;DHT22;23169;41.804;12.596;2023-07-31T02:11:44;25.20;1.00
37281;DHT22;23169;41.804;12.596;2023-07-31T02:16:45;25.30;1.00
37281;DHT22;23169;41.804;12.596;2023-07-31T02:19:13;25.30;1.00
37281;DHT22;23169;41.804;12.596;2023-07-31T02:21:43;25.30;1.00
37281;DHT22;23169;41.804;12.596;2023-07-31T02:24:11;25.30;1.00
37281;DHT22;23169;41.804;12.596;2023-07-31T02:26:40;25.20;1.00
37281;DHT22;23169;41.804;12.596;2023-07-31T02:29:10;25.20;1.00
37281;DHT22;23169;41.804;12.596;2023-07-31T02:31:39;25.10;1.00
37281;DHT22;23169;41.804;12.596;2023-07-31T02:34:08;25.10;1.00
37281;DHT22;23169;41.804;12.596;2023-07-31T02:41:40;24.90;1.00
37281;DHT22;23169;41.804;12.596;2023-07-31T02:44:09;25.00;1.00
37281;DHT22;23169;41.804;12.596;2023-07-31T02:46:41;24.90;1.00
37281;DHT22;23169;41.804;12.596;2023-07-31T02:49:10;24.90;1.00
37281;DHT22;23169;41.804;12.596;2023-07-31T02:51:39;24.90;1.00
37281;DHT22;23169;41.804;12.596;2023-07-31T02:54:07;25.10;1.00
37281;DHT22;23169;41.804;12.596;2023-07-31T02:56:36;24.90;1.00
37281;DHT22;23169;41.804;12.596;2023-07-31T02:59:06;24.90;1.00
37281;DHT22;23169;41.804;12.596;2023-07-31T03:01:35;24.80;1.00
37281;DHT22;23169;41.804;12.596;2023-07-31T03:04:03;24.80;1.00
37281;DHT22;23169;41.804;12.596;2023-07-31T03:06:33;24.70;1.00
37281;DHT22;23169;41.804;12.596;2023-07-31T03:11:38;24.70;1.00
37281;DHT22;23169;41.804;12.596;2023-07-31T03:14:07;24.70;1.00
37281;DHT22;23169;41.804;12.596;2023-07-31T03:16:36;24.60;1.00
37281;DHT22;23169;41.804;12.596;2023-07-31T03:19:04;24.60;1.50
37281;DHT22;23169;41.804;12.596;2023-07-31T03:21:33;24.60;1.00
37281;DHT22;23169;41.804;12.596;2023-07-31T03:26:32;24.60;1.00
37281;DHT22;23169;41.804;12.596;2023-07-31T03:29:01;24.60;2.90
37281;DHT22;23169;41.804;12.596;2023-07-31T03:31:30;24.60;2.70
37281;DHT22;23169;41.804;12.596;2023-07-31T03:34:02;24.60;2.70
37281;DHT22;23169;41.804;12.596;2023-07-31T03:36:31;24.60;3.30
37281;DHT22;23169;41.804;12.596;2023-07-31T03:39:00;24.60;4.40
37281;DHT22;23169;41.804;12.596;2023-07-31T03:41:29;24.60;3.20
37281;DHT22;23169;41.804;12.596;2023-07-31T03:43:58;24.60;3.50
37281;DHT22;23169;41.804;12.596;2023-07-31T03:48:56;24.50;1.00
37281;DHT22;23169;41.804;12.596;2023-07-31T03:51:25;24.50;4.80
37281;DHT22;23169;41.804;12.596;2023-07-31T03:53:53;24.40;4.70
37281;DHT22;23169;41.804;12.596;2023-07-31T03:56:22;24.40;4.70
37281;DHT22;23169;41.804;12.596;2023-07-31T03:58:51;24.40;4.80
37281;DHT22;23169;41.804;12.596;2023-07-31T04:01:20;24.40;4.80
37281;DHT22;23169;41.804;12.596;2023-07-31T04:03:52;24.40;5.80
37281;DHT22;23169;41.804;12.596;2023-07-31T04:06:21;24.30;7.20
37281;DHT22;23169;41.804;12.596;2023-07-31T04:08:50;24.30;7.20
37281;DHT22;23169;41.804;12.596;2023-07-31T04:11:19;24.20;8.20
37281;DHT22;23169;41.804;12.596;2023-07-31T04:13:47;24.20;10.80
37281;DHT22;23169;41.804;12.596;2023-07-31T04:16:16;24.20;12.10
37281;DHT22;23169;41.804;12.596;2023-07-31T04:18:45;24.10;15.30
37281;DHT22;23169;41.804;12.596;2023-07-31T04:21:14;24.10;16.70
37281;DHT22;23169;41.804;12.596;2023-07-31T04:26:13;24.10;9.30
37281;DHT22;23169;41.804;12.596;2023-07-31T04:28:46;24.00;18.00
37281;DHT22;23169;41.804;12.596;2023-07-31T04:31:14;24.00;21.00
37281;DHT22;23169;41.804;12.596;2023-07-31T04:33:45;24.00;24.40
37281;DHT22;23169;41.804;12.596;2023-07-31T04:36:14;24.00;25.60
37281;DHT22;23169;41.804;12.596;2023-07-31T04:38:46;24.00;25.90
37281;DHT22;23169;41.804;12.596;2023-07-31T04:43:46;24.00;20.20
37281;DHT22;23169;41.804;12.596;2023-07-31T04:46:15;24.00;24.80
37281;DHT22;23169;41.804;12.596;2023-07-31T04:48:44;24.00;22.70
37281;DHT22;23169;41.804;12.596;2023-07-31T04:51:13;24.00;25.40
37281;DHT22;23169;41.804;12.596;2023-07-31T04:53:43;24.00;23.80
37281;DHT22;23169;41.804;12.596;2023-07-31T04:56:11;24.00;23.50
37281;DHT22;23169;41.804;12.596;2023-07-31T04:58:40;24.10;23.00
37281;DHT22;23169;41.804;12.596;2023-07-31T05:01:09;24.10;22.70
37281;DHT22;23169;41.804;12.596;2023-07-31T05:06:12;24.20;14.20
37281;DHT22;23169;41.804;12.596;2023-07-31T05:08:44;24.30;20.70
37281;DHT22;23169;41.804;12.596;2023-07-31T05:16:15;24.40;12.50
37281;DHT22;23169;41.804;12.596;2023-07-31T05:18:44;24.40;19.90
37281;DHT22;23169;41.804;12.596;2023-07-31T05:21:13;24.40;18.60
37281;DHT22;23169;41.804;12.596;2023-07-31T05:23:43;24.50;17.50
37281;DHT22;23169;41.804;12.596;2023-07-31T05:26:11;24.50;15.90
37281;DHT22;23169;41.804;12.596;2023-07-31T05:28:40;24.60;15.00
37281;DHT22;23169;41.804;12.596;2023-07-31T05:31:12;24.60;15.50
37281;DHT22;23169;41.804;12.596;2023-07-31T05:33:41;24.60;15.60
37281;DHT22;23169;41.804;12.596;2023-07-31T05:36:10;24.60;15.90
37281;DHT22;23169;41.804;12.596;2023-07-31T05:38:39;24.70;14.30
37281;DHT22;23169;41.804;12.596;2023-07-31T05:41:08;24.80;22.40
37281;DHT22;23169;41.804;12.596;2023-07-31T05:43:38;24.80;13.60
37281;DHT22;23169;41.804;12.596;2023-07-31T05:46:07;24.90;14.10
37281;DHT22;23169;41.804;12.596;2023-07-31T05:48:37;24.90;13.30
37281;DHT22;23169;41.804;12.596;2023-07-31T05:51:06;24.90;14.60
37281;DHT22;23169;41.804;12.596;2023-07-31T05:53:35;25.70;13.40
37281;DHT22;23169;41.804;12.596;2023-07-31T05:56:08;25.10;12.50
37281;DHT22;23169;41.804;12.596;2023-07-31T05:58:39;25.30;10.30
37281;DHT22;23169;41.804;12.596;2023-07-31T06:01:07;25.40;8.50
37281;DHT22;23169;41.804;12.596;2023-07-31T06:03:36;25.50;7.90
37281;DHT22;23169;41.804;12.596;2023-07-31T06:06:05;25.50;7.60
37281;DHT22;23169;41.804;12.596;2023-07-31T06:08:35;25.50;7.50
37281;DHT22;23169;41.804;12.596;2023-07-31T06:11:04;25.50;9.30
37281;DHT22;23169;41.804;12.596;2023-07-31T06:13:33;25.50;9.90
37281;DHT22;23169;41.804;12.596;2023-07-31T06:16:02;25.50;10.20
37281;DHT22;23169;41.804;12.596;2023-07-31T06:18:35;25.60;9.60
37281;DHT22;23169;41.804;12.596;2023-07-31T06:21:04;25.60;8.70
37281;DHT22;23169;41.804;12.596;2023-07-31T06:23:33;25.60;7.50
37281;DHT22;23169;41.804;12.596;2023-07-31T06:26:04;25.60;6.60
37281;DHT22;23169;41.804;12.596;2023-07-31T06:28:34;25.70;5.10
37281;DHT22;23169;41.804;12.596;2023-07-31T06:31:03;25.80;3.80
37281;DHT22;23169;41.804;12.596;2023-07-31T06:33:32;25.80;1.60
37281;DHT22;23169;41.804;12.596;2023-07-31T06:36:01;25.80;1.00
37281;DHT22;23169;41.804;12.596;2023-07-31T06:38:30;25.90;1.00
37281;DHT22;23169;41.804;12.596;2023-07-31T06:40:59;25.90;4.00
37281;DHT22;23169;41.804;12.596;2023-07-31T06:43:31;26.00;1.00
37281;DHT22;23169;41.804;12.596;2023-07-31T06:46:05;26.00;1.00
37281;DHT22;23169;41.804;12.596;2023-07-31T06:48:36;26.20;1.00
37281;DHT22;23169;41.804;12.596;2023-07-31T06:51:08;26.30;1.00
37281;DHT22;23169;41.804;12.596;2023-07-31T06:53:37;26.40;1.00
37281;DHT22;23169;41.804;12.596;2023-07-31T06:56:08;26.50;1.00
37281;DHT22;23169;41.804;12.596;2023-07-31T06:58:37;26.60;1.00
37281;DHT22;23169;41.804;12.596;2023-07-31T07:01:06;26.60;1.00
37281;DHT22;23169;41.804;12.596;2023-07-31T07:03:35;26.70;1.00
37281;DHT22;23169;41.804;12.596;2023-07-31T07:06:04;26.70;1.00
37281;DHT22;23169;41.804;12.596;2023-07-31T07:08:34;26.80;1.00
37281;DHT22;23169;41.804;12.596;2023-07-31T07:11:02;26.90;1.00
37281;DHT22;23169;41.804;12.596;2023-07-31T07:13:32;26.90;1.00
37281;DHT22;23169;41.804;12.596;2023-07-31T07:16:01;27.00;1.00
37281;DHT22;23169;41.804;12.596;2023-07-31T07:18:30;27.00;1.00
37281;DHT22;23169;41.804;12.596;2023-07-31T07:20:59;27.20;1.00
37281;DHT22;23169;41.804;12.596;2023-07-31T07:23:31;27.30;1.00
37281;DHT22;23169;41.804;12.596;2023-07-31T07:26:00;27.40;1.00
37281;DHT22;23169;41.804;12.596;2023-07-31T07:28:30;27.50;1.00
37281;DHT22;23169;41.804;12.596;2023-07-31T07:30:58;27.50;1.00
37281;DHT22;23169;41.804;12.596;2023-07-31T07:33:31;27.60;1.00
37281;DHT22;23169;41.804;12.596;2023-07-31T07:36:01;27.70;1.00
37281;DHT22;23169;41.804;12.596;2023-07-31T07:38:31;27.80;1.00
37281;DHT22;23169;41.804;12.596;2023-07-31T07:41:00;27.90;1.00
37281;DHT22;23169;41.804;12.596;2023-07-31T07:43:31;28.00;1.00
37281;DHT22;23169;41.804;12.596;2023-07-31T07:45:59;28.00;1.00
37281;DHT22;23169;41.804;12.596;2023-07-31T07:48:30;28.10;1.00
37281;DHT22;23169;41.804;12.596;2023-07-31T07:50:58;28.30;1.00
37281;DHT22;23169;41.804;12.596;2023-07-31T07:53:28;28.40;1.00
37281;DHT22;23169;41.804;12.596;2023-07-31T07:55:57;28.50;1.00
37281;DHT22;23169;41.804;12.596;2023-07-31T08:00:56;28.70;1.00
37281;DHT22;23169;41.804;12.596;2023-07-31T08:03:25;28.70;1.00
37281;DHT22;23169;41.804;12.596;2023-07-31T08:06:00;28.80;1.00
37281;DHT22;23169;41.804;12.596;2023-07-31T08:08:31;29.00;1.00
37281;DHT22;23169;41.804;12.596;2023-07-31T08:11:01;29.10;1.00
37281;DHT22;23169;41.804;12.596;2023-07-31T08:13:31;29.20;1.00
37281;DHT22;23169;41.804;12.596;2023-07-31T08:16:00;29.40;1.00
37281;DHT22;23169;41.804;12.596;2023-07-31T08:18:31;29.50;1.00
37281;DHT22;23169;41.804;12.596;2023-07-31T08:21:03;29.60;1.00
37281;DHT22;23169;41.804;12.596;2023-07-31T08:23:33;29.80;1.00
37281;DHT22;23169;41.804;12.596;2023-07-31T08:28:34;30.10;1.00
37281;DHT22;23169;41.804;12.596;2023-07-31T08:31:05;30.30;1.00
37281;DHT22;23169;41.804;12.596;2023-07-31T08:33:34;30.50;1.00
37281;DHT22;23169;41.804;12.596;2023-07-31T08:36:03;30.50;1.00
37281;DHT22;23169;41.804;12.596;2023-07-31T08:38:32;30.50;1.00
37281;DHT22;23169;41.804;12.596;2023-07-31T08:41:03;30.60;1.00
37281;DHT22;23169;41.804;12.596;2023-07-31T08:43:36;30.90;1.00
37281;DHT22;23169;41.804;12.596;2023-07-31T08:46:06;31.10;1.00
37281;DHT22;23169;41.804;12.596;2023-07-31T08:48:43;31.10;1.00
37281;DHT22;23169;41.804;12.596;2023-07-31T08:51:14;31.20;1.00
37281;DHT22;23169;41.804;12.596;2023-07-31T08:53:47;31.30;1.00
37281;DHT22;23169;41.804;12.596;2023-07-31T08:56:17;31.30;1.00
37281;DHT22;23169;41.804;12.596;2023-07-31T08:58:46;31.30;1.00
37281;DHT22;23169;41.804;12.596;2023-07-31T09:01:16;31.60;1.00
37281;DHT22;23169;41.804;12.596;2023-07-31T09:03:46;31.50;1.00
37281;DHT22;23169;41.804;12.596;2023-07-31T09:06:18;31.60;1.00
37281;DHT22;23169;41.804;12.596;2023-07-31T09:08:49;31.90;1.00
37281;DHT22;23169;41.804;12.596;2023-07-31T09:13:48;32.00;1.00
37281;DHT22;23169;41.804;12.596;2023-07-31T09:16:18;31.90;1.00
37281;DHT22;23169;41.804;12.596;2023-07-31T09:18:54;32.00;1.00
37281;DHT22;23169;41.804;12.596;2023-07-31T09:21:25;32.20;1.00
37281;DHT22;23169;41.804;12.596;2023-07-31T09:23:57;32.40;1.00
37281;DHT22;23169;41.804;12.596;2023-07-31T09:26:36;32.70;1.00
37281;DHT22;23169;41.804;12.596;2023-07-31T09:29:06;32.80;1.00
37281;DHT22;23169;41.804;12.596;2023-07-31T09:31:46;32.70;1.00
37281;DHT22;23169;41.804;12.596;2023-07-31T09:34:16;32.60;1.00
37281;DHT22;23169;41.804;12.596;2023-07-31T09:36:50;32.70;1.00
37281;DHT22;23169;41.804;12.596;2023-07-31T09:39:21;32.60;1.00
37281;DHT22;23169;41.804;12.596;2023-07-31T09:41:55;32.80;1.00
37281;DHT22;23169;41.804;12.596;2023-07-31T09:44:39;32.90;1.00
37281;DHT22;23169;41.804;12.596;2023-07-31T09:47:24;32.70;1.00
37281;DHT22;23169;41.804;12.596;2023-07-31T09:49:53;32.80;1.00
37281;DHT22;23169;41.804;12.596;2023-07-31T09:52:21;33.00;1.00
37281;DHT22;23169;41.804;12.596;2023-07-31T09:54:50;33.50;1.00
37281;DHT22;23169;41.804;12.596;2023-07-31T09:57:21;33.90;1.00
37281;DHT22;23169;41.804;12.596;2023-07-31T09:59:52;34.10;1.00
37281;DHT22;23169;41.804;12.596;2023-07-31T10:02:22;34.10;1.00
37281;DHT22;23169;41.804;12.596;2023-07-31T10:04:57;34.10;1.00
37281;DHT22;23169;41.804;12.596;2023-07-31T10:07:31;34.20;1.00
37281;DHT22;23169;41.804;12.596;2023-07-31T10:10:00;34.20;1.00
37281;DHT22;23169;41.804;12.596;2023-07-31T10:12:32;34.30;1.00
37281;DHT22;23169;41.804;12.596;2023-07-31T10:15:03;33.90;1.00
37281;DHT22;23169;41.804;12.596;2023-07-31T10:17:33;33.70;1.00
37281;DHT22;23169;41.804;12.596;2023-07-31T10:20:04;33.70;1.00
37281;DHT22;23169;41.804;12.596;2023-07-31T10:22:35;33.80;1.00
37281;DHT22;23169;41.804;12.596;2023-07-31T10:25:08;34.00;1.00
37281;DHT22;23169;41.804;12.596;2023-07-31T10:27:39;34.40;1.00
37281;DHT22;23169;41.804;12.596;2023-07-31T10:30:18;34.40;1.00
37281;DHT22;23169;41.804;12.596;2023-07-31T10:32:49;34.80;1.00
37281;DHT22;23169;41.804;12.596;2023-07-31T10:35:20;35.00;1.00
37281;DHT22;23169;41.804;12.596;2023-07-31T10:37:52;35.10;1.00
37281;DHT22;23169;41.804;12.596;2023-07-31T10:40:25;35.30;1.00
37281;DHT22;23169;41.804;12.596;2023-07-31T10:42:57;35.20;1.00
37281;DHT22;23169;41.804;12.596;2023-07-31T10:45:38;34.80;1.00
37281;DHT22;23169;41.804;12.596;2023-07-31T10:48:13;34.70;1.00
37281;DHT22;23169;41.804;12.596;2023-07-31T10:50:51;34.70;1.00
37281;DHT22;23169;41.804;12.596;2023-07-31T10:53:25;34.60;1.00
37281;DHT22;23169;41.804;12.596;2023-07-31T10:56:01;34.60;1.00
37281;DHT22;23169;41.804;12.596;2023-07-31T10:58:32;34.70;1.00
37281;DHT22;23169;41.804;12.596;2023-07-31T11:01:06;34.70;1.00
37281;DHT22;23169;41.804;12.596;2023-07-31T11:03:44;35.00;1.00
37281;DHT22;23169;41.804;12.596;2023-07-31T11:06:15;35.10;1.00
37281;DHT22;23169;41.804;12.596;2023-07-31T11:08:50;35.00;1.00
37281;DHT22;23169;41.804;12.596;2023-07-31T11:11:20;35.10;1.00
37281;DHT22;23169;41.804;12.596;2023-07-31T11:13:53;35.30;1.00
37281;DHT22;23169;41.804;12.596;2023-07-31T11:16:23;35.60;1.00
37281;DHT22;23169;41.804;12.596;2023-07-31T11:18:53;35.70;1.00
37281;DHT22;23169;41.804;12.596;2023-07-31T11:21:26;35.90;1.00
37281;DHT22;23169;41.804;12.596;2023-07-31T11:23:57;36.00;1.00
37281;DHT22;23169;41.804;12.596;2023-07-31T11:26:26;36.00;1.00
37281;DHT22;23169;41.804;12.596;2023-07-31T11:28:58;36.10;1.00
37281;DHT22;23169;41.804;12.596;2023-07-31T11:31:27;36.10;1.00
37281;DHT22;23169;41.804;12.596;2023-07-31T11:34:06;36.00;1.00
37281;DHT22;23169;41.804;12.596;2023-07-31T11:36:35;35.90;1.00
37281;DHT22;23169;41.804;12.596;2023-07-31T11:39:10;35.80;1.00
37281;DHT22;23169;41.804;12.596;2023-07-31T11:41:41;35.40;1.00
37281;DHT22;23169;41.804;12.596;2023-07-31T11:44:10;35.60;1.00
37281;DHT22;23169;41.804;12.596;2023-07-31T11:46:39;36.00;1.00
37281;DHT22;23169;41.804;12.596;2023-07-31T11:49:08;36.60;1.00
37281;DHT22;23169;41.804;12.596;2023-07-31T11:51:38;37.10;1.00
37281;DHT22;23169;41.804;12.596;2023-07-31T11:54:06;37.20;1.00
37281;DHT22;23169;41.804;12.596;2023-07-31T11:56:37;37.70;1.00
37281;DHT22;23169;41.804;12.596;2023-07-31T11:59:06;38.40;1.00
37281;DHT22;23169;41.804;12.596;2023-07-31T12:01:37;38.40;1.00
37281;DHT22;23169;41.804;12.596;2023-07-31T12:04:05;38.00;1.00
37281;DHT22;23169;41.804;12.596;2023-07-31T12:06:37;37.00;1.00
37281;DHT22;23169;41.804;12.596;2023-07-31T12:09:06;36.10;1.00
37281;DHT22;23169;41.804;12.596;2023-07-31T12:11:44;35.60;1.00
37281;DHT22;23169;41.804;12.596;2023-07-31T12:14:27;35.00;1.00
37281;DHT22;23169;41.804;12.596;2023-07-31T12:16:59;34.40;1.00
37281;DHT22;23169;41.804;12.596;2023-07-31T12:19:29;33.30;1.00
37281;DHT22;23169;41.804;12.596;2023-07-31T12:22:11;32.80;1.00
37281;DHT22;23169;41.804;12.596;2023-07-31T12:24:42;32.80;1.00
37281;DHT22;23169;41.804;12.596;2023-07-31T12:27:14;33.50;1.00
37281;DHT22;23169;41.804;12.596;2023-07-31T12:29:43;34.50;1.00
37281;DHT22;23169;41.804;12.596;2023-07-31T12:32:22;34.80;1.00
37281;DHT22;23169;41.804;12.596;2023-07-31T12:34:51;35.20;1.00
37281;DHT22;23169;41.804;12.596;2023-07-31T12:37:18;35.30;1.00
37281;DHT22;23169;41.804;12.596;2023-07-31T12:39:49;35.10;1.00
37281;DHT22;23169;41.804;12.596;2023-07-31T12:42:17;35.60;1.00
37281;DHT22;23169;41.804;12.596;2023-07-31T12:44:48;35.60;1.00
37281;DHT22;23169;41.804;12.596;2023-07-31T12:47:16;35.90;1.00
37281;DHT22;23169;41.804;12.596;2023-07-31T12:49:45;36.00;1.00
37281;DHT22;23169;41.804;12.596;2023-07-31T12:52:14;35.60;1.00
37281;DHT22;23169;41.804;12.596;2023-07-31T12:54:43;36.00;1.00
37281;DHT22;23169;41.804;12.596;2023-07-31T12:57:13;36.60;1.00
37281;DHT22;23169;41.804;12.596;2023-07-31T12:59:43;36.80;1.00
37281;DHT22;23169;41.804;12.596;2023-07-31T13:02:14;37.00;1.00
37281;DHT22;23169;41.804;12.596;2023-07-31T13:04:44;37.10;1.00
37281;DHT22;23169;41.804;12.596;2023-07-31T13:07:13;37.10;1.00
37281;DHT22;23169;41.804;12.596;2023-07-31T13:09:43;37.10;1.00
37281;DHT22;23169;41.804;12.596;2023-07-31T13:12:14;37.10;1.00
37281;DHT22;23169;41.804;12.596;2023-07-31T13:14:43;36.60;1.00
37281;DHT22;23169;41.804;12.596;2023-07-31T13:17:11;36.70;1.00
37281;DHT22;23169;41.804;12.596;2023-07-31T13:19:40;36.90;1.00
37281;DHT22;23169;41.804;12.596;2023-07-31T13:22:10;36.60;1.00
37281;DHT22;23169;41.804;12.596;2023-07-31T13:24:39;37.20;1.00
37281;DHT22;23169;41.804;12.596;2023-07-31T13:27:11;37.20;1.00
37281;DHT22;23169;41.804;12.596;2023-07-31T13:29:40;37.60;1.00
37281;DHT22;23169;41.804;12.596;2023-07-31T13:32:08;36.70;1.00
37281;DHT22;23169;41.804;12.596;2023-07-31T13:34:37;36.50;1.00
37281;DHT22;23169;41.804;12.596;2023-07-31T13:37:06;36.60;1.00
37281;DHT22;23169;41.804;12.596;2023-07-31T13:39:35;36.60;1.00
37281;DHT22;23169;41.804;12.596;2023-07-31T13:42:05;36.90;1.00
37281;DHT22;23169;41.804;12.596;2023-07-31T13:44:39;37.40;1.00
37281;DHT22;23169;41.804;12.596;2023-07-31T13:47:11;37.70;1.00
37281;DHT22;23169;41.804;12.596;2023-07-31T13:49:41;37.80;1.00
37281;DHT22;23169;41.804;12.596;2023-07-31T13:52:11;38.00;1.00
37281;DHT22;23169;41.804;12.596;2023-07-31T13:54:40;38.20;1.00
37281;DHT22;23169;41.804;12.596;2023-07-31T13:57:11;37.90;1.00
37281;DHT22;23169;41.804;12.596;2023-07-31T13:59:40;38.00;1.00
37281;DHT22;23169;41.804;12.596;2023-07-31T14:02:10;37.20;1.00
37281;DHT22;23169;41.804;12.596;2023-07-31T14:04:39;37.70;1.00
37281;DHT22;23169;41.804;12.596;2023-07-31T14:07:07;37.70;1.00
37281;DHT22;23169;41.804;12.596;2023-07-31T14:09:37;37.60;1.00
37281;DHT22;23169;41.804;12.596;2023-07-31T14:12:05;37.90;1.00
37281;DHT22;23169;41.804;12.596;2023-07-31T14:14:34;37.60;1.00
37281;DHT22;23169;41.804;12.596;2023-07-31T14:17:03;37.80;1.00
37281;DHT22;23169;41.804;12.596;2023-07-31T14:19:36;37.80;1.00
37281;DHT22;23169;41.804;12.596;2023-07-31T14:22:05;37.60;1.00
37281;DHT22;23169;41.804;12.596;2023-07-31T14:24:35;37.40;1.00
37281;DHT22;23169;41.804;12.596;2023-07-31T14:27:03;37.10;1.00
37281;DHT22;23169;41.804;12.596;2023-07-31T14:29:32;36.90;1.00
37281;DHT22;23169;41.804;12.596;2023-07-31T14:32:02;37.40;1.00
37281;DHT22;23169;41.804;12.596;2023-07-31T14:34:31;37.10;1.00
37281;DHT22;23169;41.804;12.596;2023-07-31T14:37:00;37.60;1.00
37281;DHT22;23169;41.804;12.596;2023-07-31T14:39:29;38.10;1.00
37281;DHT22;23169;41.804;12.596;2023-07-31T14:41:58;37.40;1.00
37281;DHT22;23169;41.804;12.596;2023-07-31T14:44:27;37.40;1.00
37281;DHT22;23169;41.804;12.596;2023-07-31T14:46:56;37.90;1.00
37281;DHT22;23169;41.804;12.596;2023-07-31T14:49:25;37.50;1.00
37281;DHT22;23169;41.804;12.596;2023-07-31T14:51:56;38.10;1.00
37281;DHT22;23169;41.804;12.596;2023-07-31T14:54:24;38.10;1.00
37281;DHT22;23169;41.804;12.596;2023-07-31T14:56:53;37.90;1.00
37281;DHT22;23169;41.804;12.596;2023-07-31T14:59:22;37.90;1.00
37281;DHT22;23169;41.804;12.596;2023-07-31T15:01:51;38.20;1.00
37281;DHT22;23169;41.804;12.596;2023-07-31T15:04:20;37.00;1.00
37281;DHT22;23169;41.804;12.596;2023-07-31T15:06:52;36.40;1.00
37281;DHT22;23169;41.804;12.596;2023-07-31T15:09:20;36.10;1.00
37281;DHT22;23169;41.804;12.596;2023-07-31T15:11:50;36.00;1.00
37281;DHT22;23169;41.804;12.596;2023-07-31T15:14:19;36.40;1.00
37281;DHT22;23169;41.804;12.596;2023-07-31T15:16:48;37.10;1.00
37281;DHT22;23169;41.804;12.596;2023-07-31T15:19:17;36.60;1.00
37281;DHT22;23169;41.804;12.596;2023-07-31T15:21:46;36.70;1.00
37281;DHT22;23169;41.804;12.596;2023-07-31T15:24:15;37.40;1.00
37281;DHT22;23169;41.804;12.596;2023-07-31T15:26:44;37.80;1.00
37281;DHT22;23169;41.804;12.596;2023-07-31T15:29:13;37.80;1.00
37281;DHT22;23169;41.804;12.596;2023-07-31T15:31:48;37.80;1.00
37281;DHT22;23169;41.804;12.596;2023-07-31T15:34:16;37.70;1.00
37281;DHT22;23169;41.804;12.596;2023-07-31T15:36:47;37.40;1.00
37281;DHT22;23169;41.804;12.596;2023-07-31T15:39:16;37.10;1.00
37281;DHT22;23169;41.804;12.596;2023-07-31T15:41:45;37.70;1.00
37281;DHT22;23169;41.804;12.596;2023-07-31T15:44:14;37.90;1.00
37281;DHT22;23169;41.804;12.596;2023-07-31T15:46:44;38.40;1.00
37281;DHT22;23169;41.804;12.596;2023-07-31T15:49:13;38.20;1.00
37281;DHT22;23169;41.804;12.596;2023-07-31T15:51:43;38.70;1.00
37281;DHT22;23169;41.804;12.596;2023-07-31T15:54:12;38.40;1.00
37281;DHT22;23169;41.804;12.596;2023-07-31T15:56:41;38.00;1.00
37281;DHT22;23169;41.804;12.596;2023-07-31T15:59:10;37.20;1.00
37281;DHT22;23169;41.804;12.596;2023-07-31T16:01:39;37.70;1.00
37281;DHT22;23169;41.804;12.596;2023-07-31T16:04:08;37.30;1.00
37281;DHT22;23169;41.804;12.596;2023-07-31T16:06:38;36.90;1.00
37281;DHT22;23169;41.804;12.596;2023-07-31T16:09:06;36.80;1.00
37281;DHT22;23169;41.804;12.596;2023-07-31T16:11:37;36.10;1.00
37281;DHT22;23169;41.804;12.596;2023-07-31T16:14:05;35.50;1.00
37281;DHT22;23169;41.804;12.596;2023-07-31T16:16:35;34.60;1.00
37281;DHT22;23169;41.804;12.596;2023-07-31T16:19:03;33.90;1.00
37281;DHT22;23169;41.804;12.596;2023-07-31T16:21:32;33.40;1.00
37281;DHT22;23169;41.804;12.596;2023-07-31T16:24:02;32.70;1.00
37281;DHT22;23169;41.804;12.596;2023-07-31T16:26:31;32.30;1.00
37281;DHT22;23169;41.804;12.596;2023-07-31T16:29:01;32.30;1.00
37281;DHT22;23169;41.804;12.596;2023-07-31T16:31:32;32.10;1.00
37281;DHT22;23169;41.804;12.596;2023-07-31T16:34:01;32.00;1.00
37281;DHT22;23169;41.804;12.596;2023-07-31T16:36:30;32.00;1.00
37281;DHT22;23169;41.804;12.596;2023-07-31T16:38:59;32.00;1.00